Time;durP1;ratioP1;P1;durP2;ratioP2;P2;SDS_P1;SDS_P2;PMS_P1;PMS_P2;Temp;Humidity;BMP_temperature;BMP_pressure;BME280_temperature;BME280_humidity;BME280_pressure;Samples;Min_cycle;Max_cycle;Signal;HPM_P1;HPM_P2
2021/01/11 00:00:06;;;;;;;31.10;18.90;;;4.40;99.90;;;-146.47;100.00;66290.13;4980341;28;20286;-77
2021/01/11 00:02:52;;;;;;;38.80;22.57;;;4.40;99.90;;;-146.47;100.00;66290.13;4975700;28;20262;-77
2021/01/11 00:05:37;;;;;;;37.53;23.00;;;4.40;99.90;;;-146.47;100.00;66290.13;4972925;28;20284;-77
2021/01/11 00:08:23;;;;;;;43.30;22.90;;;4.40;99.90;;;-146.47;100.00;66290.13;4971600;28;20255;-77
2021/01/11 00:11:11;;;;;;;42.73;23.53;;;4.40;99.90;;;-146.47;100.00;66290.13;4971188;28;20258;-76
2021/01/11 00:13:56;;;;;;;36.47;22.40;;;4.40;99.90;;;-146.47;100.00;66290.13;4966514;28;20210;-76
2021/01/11 00:16:41;;;;;;;37.57;21.80;;;4.40;99.90;;;-146.47;100.00;66290.13;4977823;28;20613;-76
2021/01/11 00:19:27;;;;;;;35.30;20.23;;;4.40;99.90;;;-146.47;100.00;66290.13;4983730;28;20763;-76
2021/01/11 00:22:12;;;;;;;42.97;28.07;;;4.40;99.90;;;-146.47;100.00;66290.13;4972092;28;20625;-76
2021/01/11 00:24:58;;;;;;;38.53;22.47;;;4.40;99.90;;;-146.47;100.00;66290.13;4962745;28;20222;-76
2021/01/11 00:27:43;;;;;;;42.27;23.40;;;4.40;99.90;;;-146.47;100.00;66290.13;4972401;28;20197;-76
2021/01/11 00:30:28;;;;;;;42.90;25.47;;;4.40;99.90;;;-146.47;100.00;66290.13;4979439;28;20259;-77
2021/01/11 00:33:14;;;;;;;42.27;24.90;;;4.40;99.90;;;-146.47;100.00;66290.13;4957494;28;20206;-77
2021/01/11 00:35:59;;;;;;;43.83;23.30;;;4.30;99.90;;;-146.47;100.00;66290.13;4964817;28;20217;-77
2021/01/11 00:38:45;;;;;;;38.53;23.07;;;4.40;99.90;;;-146.47;100.00;66290.13;4977553;28;20209;-77
2021/01/11 00:41:31;;;;;;;42.57;25.13;;;4.40;99.90;;;-146.47;100.00;66290.13;4963551;28;20231;-77
2021/01/11 00:44:16;;;;;;;42.63;24.57;;;4.30;99.90;;;-146.47;100.00;66290.13;4979561;28;20208;-76
2021/01/11 00:47:06;;;;;;;42.40;23.17;;;4.30;99.90;;;-146.47;100.00;66290.13;4981564;28;20209;-75
2021/01/11 00:49:51;;;;;;;35.60;18.90;;;4.30;99.90;;;-146.47;100.00;66290.13;4971312;28;20314;-77
2021/01/11 00:52:36;;;;;;;45.83;27.07;;;4.30;99.90;;;-146.47;100.00;66290.13;4977516;28;20257;-76
2021/01/11 00:55:21;;;;;;;33.00;18.47;;;4.30;99.90;;;-146.47;100.00;66290.13;4974504;28;20241;-76
2021/01/11 00:58:07;;;;;;;43.67;25.57;;;4.30;99.90;;;-146.47;100.00;66290.13;4971251;28;20629;-76
2021/01/11 01:00:53;;;;;;;44.43;25.50;;;4.30;99.90;;;-146.47;100.00;66290.13;4975175;28;20298;-77
2021/01/11 01:03:38;;;;;;;46.83;27.00;;;4.30;99.90;;;-146.47;100.00;66290.13;4962754;28;20213;-76
2021/01/11 01:06:25;;;;;;;49.93;26.20;;;4.30;99.90;;;-146.47;100.00;66290.13;4963928;28;23085;-76
2021/01/11 01:09:10;;;;;;;49.40;25.03;;;4.30;99.90;;;-146.47;100.00;66290.13;4961616;28;20229;-76
2021/01/11 01:11:55;;;;;;;48.23;25.73;;;4.40;99.90;;;-146.47;100.00;66290.13;4975379;28;20205;-76
2021/01/11 01:14:41;;;;;;;42.93;24.70;;;4.20;99.90;;;-146.47;100.00;66290.13;4980325;28;20217;-77
2021/01/11 01:17:26;;;;;;;35.07;18.60;;;4.30;99.90;;;-146.47;100.00;66290.13;4972631;28;20234;-76
2021/01/11 01:20:15;;;;;;;46.17;25.90;;;4.30;99.90;;;-146.47;100.00;66290.13;4980685;28;21247;-77
2021/01/11 01:23:01;;;;;;;38.87;21.80;;;4.30;99.90;;;-146.47;100.00;66290.13;4962408;28;20287;-76
2021/01/11 01:25:46;;;;;;;43.20;24.10;;;4.30;99.90;;;-146.47;100.00;66290.13;4967169;28;20193;-76
2021/01/11 01:28:31;;;;;;;42.73;23.07;;;4.30;99.90;;;-146.47;100.00;66290.13;4980355;28;20566;-76
2021/01/11 01:31:17;;;;;;;47.73;26.43;;;4.30;99.90;;;-146.47;100.00;66290.13;4976769;28;20214;-75
2021/01/11 01:34:02;;;;;;;42.87;23.80;;;4.30;99.90;;;-146.47;100.00;66290.13;4954503;29;20245;-76
2021/01/11 01:36:48;;;;;;;44.07;22.73;;;4.20;99.90;;;-146.47;100.00;66290.13;4967710;28;20273;-74
2021/01/11 01:39:33;;;;;;;38.40;21.37;;;4.20;99.90;;;-146.47;100.00;66290.13;4966506;28;20753;-77
2021/01/11 01:42:19;;;;;;;40.97;22.27;;;4.30;99.90;;;-146.47;100.00;66290.13;4968722;28;20209;-76
2021/01/11 01:45:06;;;;;;;44.50;24.10;;;4.30;99.90;;;-146.47;100.00;66290.13;4970740;28;20200;-75
2021/01/11 01:47:52;;;;;;;46.97;27.10;;;4.30;99.90;;;-146.47;100.00;66290.13;4966082;28;20301;-76
2021/01/11 01:50:40;;;;;;;46.40;26.10;;;4.30;99.90;;;-146.47;100.00;66290.13;4974857;28;20257;-75
2021/01/11 01:53:26;;;;;;;49.67;26.70;;;4.20;99.90;;;-146.47;100.00;66290.13;4969021;28;20209;-76
2021/01/11 01:56:11;;;;;;;54.03;30.77;;;4.20;99.90;;;-146.47;100.00;66290.13;4959655;28;20230;-76
2021/01/11 01:58:59;;;;;;;55.63;29.87;;;4.20;99.90;;;-146.47;100.00;66290.13;4961914;28;20981;-76
2021/01/11 02:01:44;;;;;;;56.17;30.33;;;4.30;99.90;;;-146.47;100.00;66290.13;4979443;28;20201;-76
2021/01/11 02:04:30;;;;;;;60.57;32.47;;;4.20;99.90;;;-146.47;100.00;66290.13;4966944;28;20628;-76
2021/01/11 02:07:28;;;;;;;60.60;31.73;;;4.20;99.90;;;-146.47;100.00;66290.13;4961009;28;20643;-76
2021/01/11 02:10:31;;;;;;;51.13;29.73;;;4.20;99.90;;;-146.47;100.00;66290.13;4966348;28;20242;-77
2021/01/11 02:13:39;;;;;;;62.10;32.50;;;4.20;99.90;;;-146.47;100.00;66290.13;4980436;28;20571;-76
2021/01/11 02:16:37;;;;;;;62.53;33.20;;;4.20;99.90;;;-146.47;100.00;66290.13;4975293;28;20222;-76
2021/01/11 02:20:28;;;;;;;59.77;33.67;;;4.20;99.90;;;-146.47;100.00;66290.13;4971337;28;20316;-77
2021/01/11 02:23:55;;;;;;;55.57;30.00;;;4.10;99.90;;;-146.47;100.00;66290.13;4974875;28;20213;-76
2021/01/11 02:27:12;;;;;;;63.20;32.43;;;4.10;99.90;;;-146.47;100.00;66290.13;4964352;28;20213;-76
2021/01/11 02:30:30;;;;;;;64.67;32.07;;;4.10;99.90;;;-146.47;100.00;66290.13;4973086;28;20242;-75
2021/01/11 02:33:17;;;;;;;62.87;31.60;;;4.00;99.90;;;-146.47;100.00;66290.13;4975387;28;20295;-76
2021/01/11 02:36:05;;;;;;;67.77;33.17;;;4.00;99.90;;;-146.47;100.00;66290.13;4969164;28;20642;-76
2021/01/11 02:38:51;;;;;;;68.00;32.93;;;3.90;99.90;;;-146.47;100.00;66290.13;4963917;28;20295;-77
2021/01/11 02:41:37;;;;;;;49.10;25.87;;;4.00;99.90;;;-146.47;100.00;66290.13;4972765;28;20201;-76
2021/01/11 02:44:21;;;;;;;63.07;32.90;;;4.00;99.90;;;-146.47;100.00;66290.13;4966189;28;20290;-77
2021/01/11 02:47:08;;;;;;;59.30;30.60;;;3.90;99.90;;;-146.47;100.00;66290.13;4967376;28;20226;-76
2021/01/11 02:49:59;;;;;;;71.27;36.43;;;4.00;99.90;;;-146.47;100.00;66290.13;4964978;28;20265;-76
2021/01/11 02:52:59;;;;;;;61.20;31.97;;;3.80;99.90;;;-146.47;100.00;66290.13;4979179;28;20241;-76
2021/01/11 02:55:53;;;;;;;67.63;37.60;;;3.90;99.90;;;-146.47;100.00;66290.13;4969116;28;20230;-76
2021/01/11 02:59:03;;;;;;;63.93;34.50;;;3.90;99.90;;;-146.47;100.00;66290.13;4978313;28;20202;-76
2021/01/11 03:01:57;;;;;;;66.33;34.90;;;3.90;99.90;;;-146.47;100.00;66290.13;4978685;28;20194;-76
2021/01/11 03:04:43;;;;;;;65.37;35.23;;;3.80;99.90;;;-146.47;100.00;66290.13;4976431;28;20257;-76
2021/01/11 03:07:28;;;;;;;71.60;41.10;;;3.80;99.90;;;-146.47;100.00;66290.13;4959512;28;20205;-77
2021/01/11 03:10:14;;;;;;;61.50;29.67;;;3.90;99.90;;;-146.47;100.00;66290.13;4970402;28;20276;-76
2021/01/11 03:12:59;;;;;;;71.37;37.33;;;3.80;99.90;;;-146.47;100.00;66290.13;4979592;28;20275;-76
2021/01/11 03:15:44;;;;;;;69.87;33.63;;;3.80;99.90;;;-146.47;100.00;66290.13;4974946;28;20309;-76
2021/01/11 03:18:30;;;;;;;81.43;36.70;;;3.80;99.90;;;-146.47;100.00;66290.13;4978193;28;20197;-77
2021/01/11 03:21:16;;;;;;;68.93;34.97;;;3.80;99.90;;;-146.47;100.00;66290.13;4979189;28;20204;-77
2021/01/11 03:24:01;;;;;;;66.30;34.63;;;3.80;99.90;;;-146.47;100.00;66290.13;4963389;28;20209;-77
2021/01/11 03:26:48;;;;;;;78.03;36.90;;;3.70;99.90;;;-146.47;100.00;66290.13;4978855;28;20293;-76
2021/01/11 03:29:33;;;;;;;77.83;35.30;;;3.70;99.90;;;-146.47;100.00;66290.13;4958925;28;20772;-76
2021/01/11 03:32:18;;;;;;;72.27;34.13;;;3.70;99.90;;;-146.47;100.00;66290.13;4960440;28;20776;-76
2021/01/11 03:35:05;;;;;;;74.53;30.43;;;3.70;99.90;;;-146.47;100.00;66290.13;4965684;28;20245;-76
2021/01/11 03:37:50;;;;;;;46.60;21.23;;;3.70;99.90;;;-146.47;100.00;66290.13;4971445;28;20287;-76
2021/01/11 03:40:36;;;;;;;66.80;32.77;;;3.60;99.90;;;-146.47;100.00;66290.13;4978339;28;20253;-74
2021/01/11 03:43:21;;;;;;;78.77;35.70;;;3.60;99.90;;;-146.47;100.00;66290.13;4971953;28;20715;-76
2021/01/11 03:46:11;;;;;;;69.10;31.17;;;3.60;99.90;;;-146.47;100.00;66290.13;4977520;28;20695;-76
2021/01/11 03:48:57;;;;;;;79.97;36.03;;;3.60;99.90;;;-146.47;100.00;66290.13;4974471;28;20289;-76
2021/01/11 03:51:42;;;;;;;77.57;33.87;;;3.60;99.90;;;-146.47;100.00;66290.13;4960367;28;20331;-75
2021/01/11 03:54:28;;;;;;;74.13;33.83;;;3.60;99.90;;;-146.47;100.00;66290.13;4960728;28;20210;-76
2021/01/11 03:57:13;;;;;;;77.80;31.50;;;3.50;99.90;;;-146.47;100.00;66290.13;4969769;28;20249;-75
2021/01/11 03:59:59;;;;;;;78.60;31.50;;;3.50;99.90;;;-146.47;100.00;66290.13;4979396;28;20250;-75
2021/01/11 04:02:43;;;;;;;80.00;34.67;;;3.50;99.90;;;-146.47;100.00;66290.13;4978682;28;20229;-76
2021/01/11 04:05:29;;;;;;;67.10;28.20;;;3.50;99.90;;;-146.47;100.00;66290.13;4968070;28;20226;-75
2021/01/11 04:08:14;;;;;;;75.07;33.83;;;3.50;99.90;;;-146.47;100.00;66290.13;4964210;28;20220;-76
2021/01/11 04:11:01;;;;;;;76.57;31.70;;;3.50;99.90;;;-146.47;100.00;66290.13;4978139;28;20695;-76
2021/01/11 04:13:45;;;;;;;68.67;28.83;;;3.40;99.90;;;-146.47;100.00;66290.13;4959593;28;20748;-77
2021/01/11 04:16:30;;;;;;;58.03;24.83;;;3.40;99.90;;;-146.47;100.00;66290.13;4976150;28;20248;-77
2021/01/11 04:19:16;;;;;;;62.70;27.90;;;3.40;99.90;;;-146.47;100.00;66290.13;4979239;28;20667;-75
2021/01/11 04:22:01;;;;;;;73.43;33.10;;;3.30;99.90;;;-146.47;100.00;66290.13;4984555;28;20217;-75
2021/01/11 04:24:46;;;;;;;69.27;28.27;;;3.30;99.90;;;-146.47;100.00;66290.13;4985034;28;20190;-75
2021/01/11 04:27:32;;;;;;;54.60;22.90;;;3.30;99.90;;;-146.47;100.00;66290.13;4986439;28;20201;-76
2021/01/11 04:30:19;;;;;;;75.23;31.37;;;3.30;99.90;;;-146.47;100.00;66290.13;4995369;28;20216;-75
2021/01/11 04:33:05;;;;;;;60.10;24.53;;;3.30;99.90;;;-146.47;100.00;66290.13;4996973;28;20192;-76
2021/01/11 04:35:50;;;;;;;66.63;27.77;;;3.30;99.90;;;-146.47;100.00;66290.13;4968227;28;20287;-75
2021/01/11 04:38:35;;;;;;;79.23;32.50;;;3.30;99.90;;;-146.47;100.00;66290.13;4965367;28;20242;-77
2021/01/11 04:41:21;;;;;;;67.73;28.97;;;3.30;99.90;;;-146.47;100.00;66290.13;4984905;28;20570;-77
2021/01/11 04:44:11;;;;;;;69.83;28.43;;;3.30;99.90;;;-146.47;100.00;66290.13;4959126;28;20206;-77
2021/01/11 04:46:57;;;;;;;70.90;30.67;;;3.20;99.90;;;-146.47;100.00;66290.13;4968904;28;20210;-77
2021/01/11 04:49:43;;;;;;;56.10;22.43;;;3.30;99.90;;;-146.47;100.00;66290.13;4962679;28;20237;-77
2021/01/11 04:52:32;;;;;;;82.00;30.57;;;3.30;99.90;;;-146.47;100.00;66290.13;4981038;28;20208;-75
2021/01/11 04:55:18;;;;;;;68.97;29.67;;;3.20;99.90;;;-146.47;100.00;66290.13;4963144;28;20219;-75
2021/01/11 04:58:08;;;;;;;78.43;30.67;;;3.20;99.90;;;-146.47;100.00;66290.13;4961438;28;20209;-77
2021/01/11 05:01:00;;;;;;;79.60;31.40;;;3.30;99.90;;;-146.47;100.00;66290.13;4963499;28;20524;-75
2021/01/11 05:03:45;;;;;;;76.53;31.13;;;3.20;99.90;;;-146.47;100.00;66290.13;4966206;28;20565;-76
2021/01/11 05:06:30;;;;;;;71.47;31.80;;;3.20;99.90;;;-146.47;100.00;66290.13;4962576;28;20213;-76
2021/01/11 05:09:18;;;;;;;76.10;29.37;;;3.30;99.90;;;-146.47;100.00;66290.13;4973620;28;20272;-77
2021/01/11 05:12:03;;;;;;;71.20;27.87;;;3.20;99.90;;;-146.47;100.00;66290.13;4967873;28;20302;-76
2021/01/11 05:14:48;;;;;;;79.27;30.97;;;3.20;99.90;;;-146.47;100.00;66290.13;4973576;28;20197;-76
2021/01/11 05:17:43;;;;;;;88.00;29.47;;;3.20;99.90;;;-146.47;100.00;66290.13;4969299;28;20675;-76
2021/01/11 05:20:31;;;;;;;71.27;28.73;;;3.20;99.90;;;-146.47;100.00;66290.13;4996601;28;20613;-75
2021/01/11 05:23:17;;;;;;;89.70;38.00;;;3.20;99.90;;;-146.47;100.00;66290.13;4996172;28;20209;-74
2021/01/11 05:26:14;;;;;;;92.03;36.63;;;3.20;99.90;;;-146.47;100.00;66290.13;4998038;28;20219;-75
2021/01/11 05:29:17;;;;;;;101.97;40.40;;;3.20;99.90;;;-146.47;100.00;66290.13;4968362;28;20338;-76
2021/01/11 05:32:05;;;;;;;85.90;33.57;;;3.20;99.90;;;-146.47;100.00;66290.13;4962000;28;20315;-78
2021/01/11 05:34:53;;;;;;;105.20;43.13;;;3.30;99.90;;;-146.47;100.00;66290.13;4979164;28;20226;-76
2021/01/11 05:37:40;;;;;;;97.20;36.17;;;3.30;99.90;;;-146.47;100.00;66290.13;4981491;28;20535;-76
2021/01/11 05:40:27;;;;;;;98.37;35.97;;;3.30;99.90;;;-146.47;100.00;66290.13;4973708;28;20709;-76
2021/01/11 05:43:20;;;;;;;97.43;36.57;;;3.30;99.90;;;-146.47;100.00;66290.13;4974542;28;20574;-78
2021/01/11 05:46:22;;;;;;;98.47;37.77;;;3.30;99.90;;;-146.47;100.00;66290.13;4975641;28;20241;-76
2021/01/11 05:49:10;;;;;;;105.70;41.83;;;3.30;99.90;;;-146.47;100.00;66290.13;4975893;28;20229;-77
2021/01/11 05:52:12;;;;;;;110.40;44.17;;;3.30;99.90;;;-146.47;100.00;66290.13;4975020;28;20260;-77
2021/01/11 05:54:57;;;;;;;106.13;41.33;;;3.30;99.90;;;-146.47;100.00;66290.13;4966891;28;20209;-76
2021/01/11 05:57:52;;;;;;;116.73;47.33;;;3.30;99.90;;;-146.47;100.00;66290.13;4978794;28;20264;-76
2021/01/11 06:00:40;;;;;;;96.57;39.67;;;3.30;99.90;;;-146.47;100.00;66290.13;4980388;28;20234;-76
2021/01/11 06:03:25;;;;;;;108.10;44.60;;;3.40;99.90;;;-146.47;100.00;66290.13;4980221;28;20605;-76
2021/01/11 06:06:10;;;;;;;103.97;42.90;;;3.40;99.90;;;-146.47;100.00;66290.13;4964892;28;20201;-77
2021/01/11 06:08:56;;;;;;;102.57;44.30;;;3.50;99.90;;;-146.47;100.00;66290.13;4966881;28;20787;-76
2021/01/11 06:11:42;;;;;;;101.37;42.70;;;3.40;99.90;;;-146.47;100.00;66290.13;4976694;28;20201;-75
2021/01/11 06:14:28;;;;;;;105.80;43.33;;;3.40;99.90;;;-146.47;100.00;66290.13;4979262;28;20225;-76
2021/01/11 06:17:14;;;;;;;107.57;44.50;;;3.40;99.90;;;-146.47;100.00;66290.13;4964850;28;20646;-76
2021/01/11 06:19:59;;;;;;;94.03;40.33;;;3.50;99.90;;;-146.47;100.00;66290.13;4974615;28;20752;-76
2021/01/11 06:23:27;;;;;;;87.07;42.17;;;3.50;99.90;;;-146.47;100.00;66290.13;4981597;28;20201;-76
2021/01/11 06:26:33;;;;;;;91.73;41.10;;;3.50;99.90;;;-146.47;100.00;66290.13;4970717;28;20608;-76
2021/01/11 06:29:28;;;;;;;89.67;41.90;;;3.50;99.90;;;-146.47;100.00;66290.13;4968408;28;20233;-76
2021/01/11 06:32:21;;;;;;;89.13;40.43;;;3.50;99.90;;;-146.47;100.00;66290.13;4979724;28;20206;-76
2021/01/11 06:35:12;;;;;;;83.17;42.47;;;3.50;99.90;;;-146.47;100.00;66290.13;4978088;28;20205;-76
2021/01/11 06:38:20;;;;;;;86.47;47.80;;;3.50;99.90;;;-146.47;100.00;66290.13;4979195;28;20209;-76
2021/01/11 06:41:14;;;;;;;88.80;41.40;;;3.50;99.90;;;-146.47;100.00;66290.13;4967742;28;20286;-76
2021/01/11 06:44:06;;;;;;;69.80;34.87;;;3.60;99.90;;;-146.47;100.00;66290.13;4970767;28;20230;-75
2021/01/11 06:46:52;;;;;;;75.03;43.70;;;3.60;99.90;;;-146.47;100.00;66290.13;4969482;28;20741;-75
2021/01/11 06:49:41;;;;;;;84.97;44.30;;;3.60;99.90;;;-146.47;100.00;66290.13;4978589;28;20308;-76
2021/01/11 06:52:35;;;;;;;75.93;38.73;;;3.60;99.90;;;-146.47;100.00;66290.13;4978964;28;20764;-76
2021/01/11 06:55:21;;;;;;;72.57;37.47;;;3.60;99.90;;;-146.47;100.00;66290.13;4977141;28;20322;-76
2021/01/11 06:58:07;;;;;;;73.33;39.80;;;3.60;99.90;;;-146.47;100.00;66290.13;4974239;28;20223;-75
2021/01/11 07:01:06;;;;;;;46.37;24.50;;;3.60;99.90;;;-146.47;100.00;66290.13;4960147;28;20752;-76
2021/01/11 07:03:51;;;;;;;49.97;27.20;;;3.60;99.90;;;-146.47;100.00;66290.13;4963967;28;20213;-76
2021/01/11 07:06:39;;;;;;;58.07;33.47;;;3.70;99.90;;;-146.47;100.00;66290.13;4979307;28;20210;-76
2021/01/11 07:09:24;;;;;;;66.93;39.30;;;3.60;99.90;;;-146.47;100.00;66290.13;4966711;28;20272;-76
2021/01/11 07:12:09;;;;;;;61.57;35.40;;;3.60;99.90;;;-146.47;100.00;66290.13;4971741;28;20225;-76
2021/01/11 07:15:01;;;;;;;64.93;37.07;;;3.60;99.90;;;-146.47;100.00;66290.13;4972011;28;20228;-76
2021/01/11 07:17:48;;;;;;;74.33;40.13;;;3.60;99.90;;;-146.47;100.00;66290.13;4966309;28;20256;-76
2021/01/11 07:20:42;;;;;;;67.33;39.23;;;3.60;99.90;;;-146.47;100.00;66290.13;4968934;28;20222;-76
2021/01/11 07:23:27;;;;;;;63.50;35.40;;;3.70;99.90;;;-146.47;100.00;66290.13;4961857;28;20201;-76
2021/01/11 07:26:15;;;;;;;58.47;34.10;;;3.70;99.90;;;-146.47;100.00;66290.13;4968638;28;20680;-76
2021/01/11 07:29:05;;;;;;;65.30;42.27;;;3.70;99.90;;;-146.47;100.00;66290.13;4965192;28;20284;-76
2021/01/11 07:31:52;;;;;;;66.13;38.93;;;3.70;99.90;;;-146.47;100.00;66290.13;4961896;28;20205;-76
2021/01/11 07:34:38;;;;;;;64.90;37.10;;;3.70;99.90;;;-146.47;100.00;66290.13;4972442;28;20217;-76
2021/01/11 07:37:22;;;;;;;61.27;35.53;;;3.70;99.90;;;-146.47;100.00;66290.13;4962585;28;20333;-76
2021/01/11 07:40:09;;;;;;;61.50;37.60;;;3.70;99.90;;;-146.47;100.00;66290.13;4968315;28;20225;-76
2021/01/11 07:42:55;;;;;;;65.27;40.27;;;3.70;99.90;;;-146.47;100.00;66290.13;4967533;28;20622;-76
2021/01/11 07:45:59;;;;;;;55.00;35.13;;;3.70;99.90;;;-146.47;100.00;66290.13;4967356;28;20735;-76
2021/01/11 07:48:44;;;;;;;50.00;27.40;;;3.80;99.90;;;-146.47;100.00;66290.13;4964517;28;20297;-76
2021/01/11 07:51:30;;;;;;;67.80;44.50;;;3.80;99.90;;;-146.47;100.00;66290.13;4956440;28;20244;-76
2021/01/11 07:54:17;;;;;;;59.60;34.33;;;3.70;99.90;;;-146.47;100.00;66290.13;4959580;28;20213;-76
2021/01/11 07:57:08;;;;;;;53.73;31.20;;;3.70;99.90;;;-146.47;100.00;66290.13;4964318;28;20284;-76
2021/01/11 08:00:04;;;;;;;56.73;35.97;;;3.70;99.90;;;-146.47;100.00;66290.13;4969610;28;20647;-76
2021/01/11 08:02:51;;;;;;;52.43;33.33;;;3.70;99.90;;;-146.47;100.00;66290.13;4968422;28;20680;-76
2021/01/11 08:05:37;;;;;;;55.23;34.20;;;3.70;99.90;;;-146.47;100.00;66290.13;4950371;28;20273;-76
2021/01/11 08:08:24;;;;;;;52.23;34.23;;;3.70;99.90;;;-146.47;100.00;66290.13;4964277;28;20283;-76
2021/01/11 08:11:09;;;;;;;37.00;21.93;;;3.70;99.90;;;-146.47;100.00;66290.13;4960263;28;20393;-76
2021/01/11 08:14:05;;;;;;;54.87;32.70;;;3.70;99.90;;;-146.47;100.00;66290.13;4964198;28;20265;-76
2021/01/11 08:16:51;;;;;;;52.47;29.73;;;3.70;99.90;;;-146.47;100.00;66290.13;4964894;28;20316;-76
2021/01/11 08:19:36;;;;;;;43.60;26.43;;;3.80;99.90;;;-146.47;100.00;66290.13;4969138;28;20253;-76
2021/01/11 08:22:22;;;;;;;52.27;29.73;;;3.70;99.90;;;-146.47;100.00;66290.13;4962061;28;20796;-76
2021/01/11 08:25:11;;;;;;;41.80;24.40;;;3.70;99.90;;;-146.47;100.00;66290.13;4961354;28;20643;-76
2021/01/11 08:27:57;;;;;;;42.37;25.43;;;3.70;99.90;;;-146.47;100.00;66290.13;4969231;28;20253;-76
2021/01/11 08:30:42;;;;;;;41.37;25.13;;;3.70;99.90;;;-146.47;100.00;66290.13;4964085;28;20252;-76
2021/01/11 08:33:30;;;;;;;40.30;23.50;;;3.70;99.90;;;-146.47;100.00;66290.13;4970376;28;20213;-76
2021/01/11 08:36:20;;;;;;;48.13;30.77;;;3.70;99.90;;;-146.47;100.00;66290.13;4968734;28;20217;-74
2021/01/11 08:39:16;;;;;;;46.90;26.97;;;3.70;99.90;;;-146.47;100.00;66290.13;4968951;28;20245;-74
2021/01/11 08:42:04;;;;;;;45.97;26.43;;;3.70;99.90;;;-146.47;100.00;66290.13;4970124;28;20267;-75
2021/01/11 08:44:50;;;;;;;44.90;27.60;;;3.80;99.90;;;-146.47;100.00;66290.13;4971329;28;20284;-75
2021/01/11 08:47:37;;;;;;;56.10;31.30;;;3.70;99.90;;;-146.47;100.00;66290.13;4970186;28;20209;-75
2021/01/11 08:50:22;;;;;;;56.20;35.27;;;3.80;99.90;;;-146.47;100.00;66290.13;4971174;28;20522;-75
2021/01/11 08:53:26;;;;;;;47.00;26.90;;;3.80;99.90;;;-146.47;100.00;66290.13;4967495;28;20739;-75
2021/01/11 08:56:11;;;;;;;42.17;25.37;;;3.80;99.90;;;-146.47;100.00;66290.13;4968138;28;20216;-75
2021/01/11 08:58:58;;;;;;;45.03;27.50;;;3.80;99.90;;;-146.47;100.00;66290.13;4961412;28;20777;-75
2021/01/11 09:01:44;;;;;;;48.10;33.57;;;3.80;99.90;;;-146.47;100.00;66290.13;4961718;28;20212;-75
2021/01/11 09:04:34;;;;;;;38.23;21.20;;;3.80;99.90;;;-146.47;100.00;66290.13;4962512;28;20233;-75
2021/01/11 09:07:29;;;;;;;47.07;28.27;;;3.80;99.90;;;-146.47;100.00;66290.13;4957031;28;20233;-75
2021/01/11 09:10:24;;;;;;;30.93;19.33;;;3.90;99.90;;;-146.47;100.00;66290.13;4957918;28;20808;-75
2021/01/11 09:13:20;;;;;;;47.87;23.00;;;3.80;99.90;;;-146.47;100.00;66290.13;4968743;28;20233;-75
2021/01/11 09:16:14;;;;;;;41.87;24.40;;;3.80;99.90;;;-146.47;100.00;66290.13;4961990;28;20237;-75
2021/01/11 09:19:08;;;;;;;44.07;25.07;;;3.80;99.90;;;-146.47;100.00;66290.13;4966997;28;20317;-75
2021/01/11 09:22:05;;;;;;;40.47;26.03;;;3.80;99.90;;;-146.47;100.00;66290.13;4967053;28;20206;-74
2021/01/11 09:24:50;;;;;;;48.40;26.83;;;3.90;99.90;;;-146.47;100.00;66290.13;4965614;28;20210;-75
2021/01/11 09:27:38;;;;;;;42.70;24.50;;;3.90;99.90;;;-146.47;100.00;66290.13;4967889;28;20341;-75
2021/01/11 09:30:24;;;;;;;42.53;28.07;;;3.90;99.90;;;-146.47;100.00;66290.13;4970891;28;20708;-75
2021/01/11 09:33:10;;;;;;;40.37;24.50;;;3.90;99.90;;;-146.47;100.00;66290.13;4951476;28;20285;-78
2021/01/11 09:35:55;;;;;;;45.10;27.73;;;3.90;99.90;;;-146.47;100.00;66290.13;4960852;28;20254;-75
2021/01/11 09:38:40;;;;;;;39.00;23.97;;;4.00;99.90;;;-146.47;100.00;66290.13;4968784;28;20205;-74
2021/01/11 09:41:25;;;;;;;39.07;24.27;;;4.00;99.90;;;-146.47;100.00;66290.13;4962425;28;20244;-75
2021/01/11 09:44:11;;;;;;;36.97;22.37;;;4.10;99.90;;;-146.47;100.00;66290.13;4959051;28;20307;-74
2021/01/11 09:46:57;;;;;;;38.77;25.13;;;4.10;99.90;;;-146.47;100.00;66290.13;4956115;28;20237;-75
2021/01/11 09:49:43;;;;;;;32.53;19.63;;;4.10;99.90;;;-146.47;100.00;66290.13;4964904;28;20230;-75
2021/01/11 09:52:28;;;;;;;37.13;23.33;;;4.10;99.90;;;-146.47;100.00;66290.13;4959083;28;20241;-75
2021/01/11 09:55:16;;;;;;;37.13;27.10;;;4.20;99.90;;;-146.47;100.00;66290.13;4968113;28;20261;-75
2021/01/11 09:58:02;;;;;;;35.07;22.43;;;4.20;99.90;;;-146.47;100.00;66290.13;4961090;28;20469;-77
2021/01/11 10:00:47;;;;;;;37.47;24.37;;;4.20;99.90;;;-146.47;100.00;66290.13;4968233;28;20747;-76
2021/01/11 10:03:32;;;;;;;37.77;23.10;;;4.20;99.90;;;-146.47;100.00;66290.13;4971011;28;20260;-76
2021/01/11 10:06:18;;;;;;;36.23;22.83;;;4.30;99.90;;;-146.47;100.00;66290.13;4976014;28;20234;-76
2021/01/11 10:09:04;;;;;;;30.63;19.13;;;4.30;99.90;;;-146.47;100.00;66290.13;4970441;28;20288;-77
2021/01/11 10:11:53;;;;;;;30.57;20.63;;;4.30;99.90;;;-146.47;100.00;66290.13;4972495;28;20249;-76
2021/01/11 10:14:39;;;;;;;33.43;20.93;;;4.30;99.90;;;-146.47;100.00;66290.13;4978306;28;20206;-78
2021/01/11 10:17:26;;;;;;;33.00;20.20;;;4.40;99.90;;;-146.47;100.00;66290.13;4961653;28;20213;-77
2021/01/11 10:20:12;;;;;;;30.23;20.07;;;4.40;99.90;;;-146.47;100.00;66290.13;4968231;28;20226;-76
2021/01/11 10:22:58;;;;;;;28.13;17.63;;;4.40;99.90;;;-146.47;100.00;66290.13;4949585;28;21014;-77
2021/01/11 10:25:43;;;;;;;28.40;17.97;;;4.40;99.90;;;-146.47;100.00;66290.13;4966469;28;20208;-77
2021/01/11 10:28:28;;;;;;;34.00;20.67;;;4.50;99.90;;;-146.47;100.00;66290.13;4967628;28;20218;-76
2021/01/11 10:31:13;;;;;;;33.03;23.53;;;4.50;99.90;;;-146.47;100.00;66290.13;4963650;28;20220;-75
2021/01/11 10:33:59;;;;;;;30.57;18.63;;;4.60;99.90;;;-146.47;100.00;66290.13;4951191;28;21066;-76
2021/01/11 10:36:46;;;;;;;24.37;15.73;;;4.60;99.90;;;-146.47;100.00;66290.13;4961288;28;20314;-76
2021/01/11 10:39:32;;;;;;;33.17;21.37;;;4.60;99.90;;;-146.47;100.00;66290.13;4967206;28;20314;-76
2021/01/11 10:42:18;;;;;;;29.37;17.50;;;4.60;99.90;;;-146.47;100.00;66290.13;4962763;28;20743;-75
2021/01/11 10:45:04;;;;;;;28.07;19.20;;;4.90;99.90;;;-146.47;100.00;66290.13;4957730;28;20289;-76
2021/01/11 10:47:50;;;;;;;32.07;23.37;;;4.70;99.90;;;-146.47;100.00;66290.13;4958004;28;20560;-76
2021/01/11 10:50:35;;;;;;;29.07;20.47;;;4.70;99.90;;;-146.47;100.00;66290.13;4962809;28;20312;-76
2021/01/11 10:53:21;;;;;;;30.63;22.10;;;4.70;99.90;;;-146.47;100.00;66290.13;4967782;28;20217;-76
2021/01/11 10:56:08;;;;;;;32.13;20.83;;;4.80;99.90;;;-146.47;100.00;66290.13;4955566;28;20298;-77
2021/01/11 10:58:53;;;;;;;28.10;17.93;;;4.80;99.90;;;-146.47;100.00;66290.13;4963509;28;20217;-76
2021/01/11 11:01:39;;;;;;;30.83;20.53;;;4.80;99.90;;;-146.47;100.00;66290.13;4968624;28;20217;-76
2021/01/11 11:04:24;;;;;;;33.03;21.73;;;4.80;99.90;;;-146.47;100.00;66290.13;4964961;28;20262;-76
2021/01/11 11:07:12;;;;;;;34.27;24.13;;;4.80;99.90;;;-146.47;100.00;66290.13;4961854;28;20209;-76
2021/01/11 11:09:57;;;;;;;32.13;21.57;;;4.90;99.90;;;-146.47;100.00;66290.13;4962446;28;20229;-76
2021/01/11 11:12:42;;;;;;;27.90;20.40;;;4.90;99.90;;;-146.47;100.00;66290.13;4965383;28;20205;-76
2021/01/11 11:15:27;;;;;;;31.53;21.90;;;4.90;99.90;;;-146.47;100.00;66290.13;4962274;28;20660;-76
2021/01/11 11:18:14;;;;;;;31.27;18.93;;;4.90;99.90;;;-146.47;100.00;66290.13;4958396;28;20680;-76